Time;durP1;ratioP1;P1;durP2;ratioP2;P2;SDS_P1;SDS_P2;PMS_P1;PMS_P2;Temp;Humidity;BMP_temperature;BMP_pressure;BME280_temperature;BME280_humidity;BME280_pressure;Samples;Min_cycle;Max_cycle;Signal;HPM_P1;HPM_P2
2022/08/15 00:03:04;;;;;;;10.70;7.10;;;25.10;70.20;;;;;;221240;1262;25358;-61
2022/08/15 00:08:12;;;;;;;8.30;5.90;;;25.10;70.20;;;;;;221414;1262;24353;-64
2022/08/15 00:13:37;;;;;;;14.10;6.90;;;25.10;69.00;;;;;;221256;1262;23008;-60
2022/08/15 00:18:47;;;;;;;10.80;6.70;;;25.10;69.00;;;;;;221027;1265;22538;-61
2022/08/15 00:23:50;;;;;;;10.00;7.20;;;25.10;69.80;;;;;;221092;1265;25244;-60
2022/08/15 00:28:54;;;;;;;8.80;6.40;;;25.10;69.70;;;;;;221415;1261;24518;-62
2022/08/15 00:34:04;;;;;;;8.80;6.80;;;25.10;70.40;;;;;;221104;1262;22534;-60
2022/08/15 00:39:28;;;;;;;9.00;6.40;;;25.10;69.80;;;;;;221149;1262;22538;-61
2022/08/15 00:44:40;;;;;;;9.10;6.50;;;25.10;69.80;;;;;;221137;1262;24289;-60
2022/08/15 00:50:05;;;;;;;9.80;6.20;;;25.10;69.60;;;;;;220949;1262;24262;-61
2022/08/15 00:55:30;;;;;;;8.40;6.00;;;25.10;69.50;;;;;;221426;1262;24214;-61
2022/08/15 01:00:40;;;;;;;7.60;6.20;;;25.10;69.20;;;;;;221249;1265;24262;-61
2022/08/15 01:05:50;;;;;;;7.50;6.30;;;25.10;69.30;;;;;;221396;1262;22549;-61
2022/08/15 01:10:57;;;;;;;8.00;6.40;;;25.10;69.80;;;;;;221635;1262;25310;-61
2022/08/15 01:16:08;;;;;;;7.30;5.90;;;25.10;69.80;;;;;;221325;1262;22697;-62
2022/08/15 01:21:23;;;;;;;8.10;6.00;;;25.10;69.10;;;;;;221263;1262;25356;-62
2022/08/15 01:26:33;;;;;;;7.90;6.30;;;25.10;69.10;;;;;;221328;1261;25241;-61
2022/08/15 01:31:47;;;;;;;7.90;5.70;;;25.10;69.00;;;;;;221360;1262;24273;-61
2022/08/15 01:36:56;;;;;;;7.10;5.70;;;25.10;68.80;;;;;;221626;1261;25254;-61
2022/08/15 01:42:10;;;;;;;8.60;6.40;;;25.10;68.80;;;;;;221143;1262;25222;-61
2022/08/15 01:47:32;;;;;;;8.20;6.00;;;25.10;68.90;;;;;;221452;1262;22995;-61
2022/08/15 01:52:51;;;;;;;8.00;6.30;;;25.10;68.50;;;;;;221545;1262;24227;-62
2022/08/15 01:58:16;;;;;;;7.70;6.10;;;25.10;68.50;;;;;;221593;1262;24268;-61
2022/08/15 02:03:36;;;;;;;10.40;6.40;;;25.10;68.70;;;;;;221517;1261;24373;-61
2022/08/15 02:08:53;;;;;;;10.10;6.70;;;25.10;68.60;;;;;;221124;1262;24218;-62
2022/08/15 02:13:57;;;;;;;8.10;6.10;;;25.10;68.40;;;;;;221318;1262;22688;-61
2022/08/15 02:19:03;;;;;;;7.80;5.90;;;25.10;68.20;;;;;;221510;1262;24292;-61
2022/08/15 02:24:23;;;;;;;6.40;5.60;;;25.10;68.30;;;;;;221462;1262;22537;-61
2022/08/15 02:29:29;;;;;;;7.60;6.00;;;25.10;68.50;;;;;;221458;1262;24350;-61
2022/08/15 02:34:34;;;;;;;12.50;6.10;;;25.10;68.60;;;;;;221556;1262;25358;-62
2022/08/15 02:39:53;;;;;;;9.70;6.20;;;25.10;68.50;;;;;;221605;1262;22595;-63
2022/08/15 02:45:01;;;;;;;9.50;5.90;;;25.10;68.20;;;;;;221570;1262;23936;-61
2022/08/15 02:50:07;;;;;;;7.30;5.70;;;25.10;68.40;;;;;;221726;1262;25926;-61
2022/08/15 02:55:12;;;;;;;6.60;5.90;;;25.10;68.80;;;;;;221132;1262;24398;-61
2022/08/15 03:00:18;;;;;;;7.20;5.50;;;25.10;68.10;;;;;;221114;1262;22877;-61
2022/08/15 03:05:29;;;;;;;6.40;5.30;;;25.10;68.20;;;;;;221275;1265;24600;-59
2022/08/15 03:10:34;;;;;;;7.70;5.80;;;25.10;68.00;;;;;;221008;1262;24249;-60
2022/08/15 03:15:52;;;;;;;9.50;5.90;;;25.10;68.00;;;;;;221312;1261;22954;-61
2022/08/15 03:21:07;;;;;;;7.80;5.80;;;25.10;67.90;;;;;;221257;1262;24214;-60
2022/08/15 03:26:12;;;;;;;6.20;5.40;;;25.10;68.00;;;;;;221238;1262;22671;-61
2022/08/15 03:31:36;;;;;;;7.60;5.40;;;25.10;67.80;;;;;;221678;1262;24280;-61
2022/08/15 03:36:53;;;;;;;9.00;6.40;;;25.10;67.90;;;;;;221366;1262;22767;-62
2022/08/15 03:42:10;;;;;;;7.40;6.00;;;25.10;67.90;;;;;;221605;1262;24501;-63
2022/08/15 03:47:24;;;;;;;10.00;6.40;;;25.10;67.50;;;;;;221497;1262;22539;-60
2022/08/15 03:52:26;;;;;;;8.40;5.80;;;25.10;67.80;;;;;;221341;1262;22534;-60
2022/08/15 03:57:49;;;;;;;9.10;6.40;;;25.00;67.80;;;;;;221425;1262;22999;-61
2022/08/15 04:03:29;;;;;;;7.60;6.10;;;25.10;67.90;;;;;;221521;1262;24248;-61
2022/08/15 04:08:34;;;;;;;9.70;6.60;;;25.10;67.80;;;;;;221508;1262;24637;-63
2022/08/15 04:13:59;;;;;;;8.40;6.10;;;25.10;67.40;;;;;;221264;1262;24312;-62
2022/08/15 04:19:03;;;;;;;8.80;6.50;;;25.10;67.70;;;;;;221512;1262;24207;-63
2022/08/15 04:24:12;;;;;;;9.60;7.50;;;25.10;67.60;;;;;;221626;1262;24420;-62
2022/08/15 04:29:30;;;;;;;9.00;6.80;;;25.00;68.00;;;;;;221407;1263;23906;-60
2022/08/15 04:34:33;;;;;;;8.80;7.40;;;25.10;68.00;;;;;;221274;1262;22742;-64
2022/08/15 04:39:56;;;;;;;8.30;6.90;;;25.10;67.60;;;;;;221268;1262;24272;-62
2022/08/15 04:44:59;;;;;;;9.20;8.00;;;25.10;67.60;;;;;;221394;1264;25240;-60
2022/08/15 04:50:05;;;;;;;8.90;7.30;;;25.10;67.70;;;;;;221265;1262;22544;-61
2022/08/15 04:55:07;;;;;;;12.10;8.30;;;25.10;67.60;;;;;;220159;1265;1640476;-62
2022/08/15 05:00:16;;;;;;;8.50;7.40;;;25.10;67.90;;;;;;221219;1262;24292;-61
2022/08/15 05:05:42;;;;;;;8.70;7.70;;;25.10;67.50;;;;;;221124;1265;25326;-60
2022/08/15 05:10:55;;;;;;;9.20;7.70;;;25.10;67.90;;;;;;221067;1265;22542;-61
2022/08/15 05:15:58;;;;;;;14.20;8.20;;;25.10;67.60;;;;;;221213;1265;22670;-61
2022/08/15 05:21:08;;;;;;;12.50;8.60;;;25.10;67.70;;;;;;221108;1265;25247;-60
2022/08/15 05:26:12;;;;;;;15.20;8.70;;;25.10;67.80;;;;;;221291;1265;24274;-62
2022/08/15 05:31:35;;;;;;;10.90;8.90;;;25.10;67.80;;;;;;221355;1262;24295;-60
2022/08/15 05:36:45;;;;;;;10.40;8.80;;;25.10;67.90;;;;;;221289;1262;24213;-58
2022/08/15 05:41:58;;;;;;;13.80;9.40;;;25.10;67.70;;;;;;221404;1262;26901;-61
2022/08/15 05:47:03;;;;;;;11.30;9.00;;;25.10;67.50;;;;;;221534;1262;26537;-61
2022/08/15 05:52:24;;;;;;;12.90;9.70;;;25.10;68.60;;;;;;220871;1265;24208;-61
2022/08/15 05:57:39;;;;;;;11.60;10.10;;;25.10;68.00;;;;;;221065;1265;22535;-62
2022/08/15 06:03:16;;;;;;;11.10;9.80;;;25.10;68.00;;;;;;221382;1262;25121;-62
2022/08/15 06:08:24;;;;;;;12.80;10.70;;;25.10;68.40;;;;;;221152;1262;25307;-59
2022/08/15 06:14:06;;;;;;;13.00;11.10;;;25.10;68.40;;;;;;221082;1265;22548;-61
2022/08/15 06:19:30;;;;;;;13.80;11.30;;;25.10;68.20;;;;;;221183;1262;22637;-57
2022/08/15 06:25:09;;;;;;;15.40;12.20;;;25.10;68.40;;;;;;221373;1261;23958;-62
2022/08/15 06:31:12;;;;;;;14.00;12.10;;;25.10;68.50;;;;;;221599;1261;22691;-63
2022/08/15 06:36:26;;;;;;;13.10;11.40;;;25.10;68.20;;;;;;220469;1265;22550;-59
2022/08/15 06:42:09;;;;;;;17.50;12.70;;;25.10;68.30;;;;;;221506;1262;24380;-61
2022/08/15 06:47:28;;;;;;;;;;;25.10;68.20;;;;;;221562;1261;23903;-61
2022/08/15 06:52:49;;;;;;;14.10;12.20;;;25.10;68.70;;;;;;221425;1261;23947;-61
2022/08/15 06:58:14;;;;;;;15.40;12.40;;;25.10;68.50;;;;;;221499;1261;22525;-62
2022/08/15 07:04:09;;;;;;;15.70;13.30;;;25.20;68.70;;;;;;221315;1261;22687;-60
2022/08/15 07:09:28;;;;;;;15.90;13.60;;;25.20;68.60;;;;;;221425;1262;22526;-65
2022/08/15 07:14:47;;;;;;;16.10;13.30;;;25.20;68.60;;;;;;221450;1265;22548;-61
2022/08/15 07:19:51;;;;;;;19.70;14.10;;;25.20;68.70;;;;;;220947;1265;25303;-61
2022/08/15 07:25:28;;;;;;;21.20;13.50;;;25.30;69.20;;;;;;221000;1265;25366;-61
2022/08/15 07:30:53;;;;;;;18.60;15.00;;;25.30;69.00;;;;;;221423;1265;24324;-61
2022/08/15 07:36:07;;;;;;;18.30;14.80;;;25.30;69.00;;;;;;221536;1265;22623;-61
2022/08/15 07:41:23;;;;;;;18.00;14.00;;;25.40;69.40;;;;;;220965;1265;25470;-61
2022/08/15 07:46:59;;;;;;;22.20;16.70;;;25.30;69.70;;;;;;221168;1265;23085;-60
2022/08/15 07:52:38;;;;;;;24.10;16.80;;;25.20;70.90;;;;;;220786;1265;22614;-62
2022/08/15 07:58:27;;;;;;;26.90;19.10;;;25.20;71.60;;;;;;221302;1266;22709;-63
2022/08/15 08:04:21;;;;;;;24.80;17.20;;;25.10;72.60;;;;;;220833;1265;23180;-59
2022/08/15 08:10:06;;;;;;;25.70;19.40;;;25.10;73.30;;;;;;220627;1265;24231;-62
2022/08/15 08:15:54;;;;;;;26.90;20.30;;;25.00;73.80;;;;;;221150;1265;23044;-60
2022/08/15 08:21:24;;;;;;;24.40;18.30;;;25.10;74.80;;;;;;220938;1262;22532;-60
2022/08/15 08:26:49;;;;;;;26.70;19.70;;;25.30;73.70;;;;;;220707;1262;23930;-61
2022/08/15 08:32:31;;;;;;;28.90;19.40;;;25.50;73.40;;;;;;221398;1265;22593;-59
2022/08/15 08:37:57;;;;;;;22.30;18.60;;;25.60;72.60;;;;;;221461;1265;23907;-58
2022/08/15 08:43:41;;;;;;;22.70;17.60;;;25.70;72.80;;;;;;221235;1262;24364;-57
2022/08/15 08:49:03;;;;;;;21.40;16.90;;;25.80;72.30;;;;;;221492;1265;22556;-60
2022/08/15 08:54:26;;;;;;;24.80;17.80;;;25.90;71.90;;;;;;221224;1265;25341;-60
2022/08/15 09:00:16;;;;;;;27.10;19.00;;;25.80;72.00;;;;;;221422;1265;25357;-58
2022/08/15 09:05:51;;;;;;;24.60;17.00;;;25.90;72.20;;;;;;221104;1265;22537;-59
2022/08/15 09:11:06;;;;;;;20.90;16.40;;;26.00;71.50;;;;;;221173;1265;24347;-59
2022/08/15 09:16:19;;;;;;;22.20;18.00;;;26.10;71.30;;;;;;221006;1265;25329;-59
2022/08/15 09:21:27;;;;;;;20.10;16.20;;;26.10;71.60;;;;;;221290;1262;22578;-58
2022/08/15 09:26:53;;;;;;;20.30;16.00;;;26.20;71.30;;;;;;221292;1262;22675;-56
2022/08/15 09:32:10;;;;;;;19.60;16.70;;;26.30;71.30;;;;;;220989;1262;25358;-59
2022/08/15 09:37:54;;;;;;;21.00;16.70;;;26.40;71.10;;;;;;221329;1265;26823;-60
2022/08/15 09:43:27;;;;;;;19.80;15.90;;;26.60;70.40;;;;;;221065;1262;23928;-59
2022/08/15 09:48:56;;;;;;;20.10;14.90;;;26.60;70.40;;;;;;221174;1261;22561;-58
2022/08/15 09:54:08;;;;;;;19.80;14.20;;;26.90;69.60;;;;;;221275;1262;25301;-57
2022/08/15 09:59:38;;;;;;;16.80;14.40;;;27.00;68.40;;;;;;221713;1262;24302;-60
2022/08/15 10:04:49;;;;;;;16.80;14.00;;;27.00;68.70;;;;;;221542;1265;22607;-59
2022/08/15 10:10:29;;;;;;;17.60;13.70;;;27.10;68.20;;;;;;221388;1262;22962;-58
2022/08/15 10:15:43;;;;;;;16.50;12.90;;;27.10;67.20;;;;;;221390;1265;24202;-57
2022/08/15 10:21:02;;;;;;;17.10;12.00;;;27.20;66.20;;;;;;221179;1265;22624;-56
2022/08/15 10:26:25;;;;;;;17.70;12.90;;;27.20;66.20;;;;;;221167;1265;22618;-56
2022/08/15 10:32:17;;;;;;;17.70;12.00;;;27.40;66.20;;;;;;221132;1265;22541;-57
2022/08/15 10:37:55;;;;;;;17.80;13.40;;;27.40;66.20;;;;;;220953;1262;22558;-60
2022/08/15 10:43:19;;;;;;;22.60;11.70;;;27.50;65.10;;;;;;220963;1265;24201;-57
2022/08/15 10:49:01;;;;;;;16.00;11.60;;;27.50;64.60;;;;;;221114;1262;22655;-56
2022/08/15 10:54:22;;;;;;;17.40;11.50;;;27.50;65.50;;;;;;221302;1262;23026;-59
2022/08/15 10:59:39;;;;;;;15.90;11.60;;;27.40;66.30;;;;;;220980;1265;22672;-59
2022/08/15 11:04:47;;;;;;;;;;;27.80;64.60;;;;;;221266;1262;24202;-58
2022/08/15 11:10:09;;;;;;;13.80;11.10;;;27.90;64.00;;;;;;221336;1262;22538;-56
2022/08/15 11:15:27;;;;;;;12.70;10.40;;;27.90;63.60;;;;;;221325;1262;22553;-58
2022/08/15 11:20:43;;;;;;;13.80;12.00;;;27.90;64.00;;;;;;221588;1262;23242;-58
2022/08/15 11:25:56;;;;;;;12.90;10.90;;;27.80;64.40;;;;;;221570;1262;24210;-57
2022/08/15 11:31:23;;;;;;;12.90;10.50;;;27.90;64.20;;;;;;221081;1265;22723;-58
2022/08/15 11:36:38;;;;;;;11.60;10.40;;;28.00;62.70;;;;;;221007;1265;23048;-57
2022/08/15 11:41:47;;;;;;;13.60;11.80;;;28.20;62.10;;;;;;221308;1263;26020;-57
2022/08/15 11:46:52;;;;;;;11.60;10.30;;;28.00;62.70;;;;;;221161;1264;22547;-58
2022/08/15 11:52:06;;;;;;;12.80;10.90;;;28.20;62.10;;;;;;221234;1262;22662;-58
2022/08/15 11:57:44;;;;;;;13.30;11.30;;;28.30;62.30;;;;;;221077;1263;22551;-59
2022/08/15 12:02:47;;;;;;;12.40;10.20;;;28.40;61.70;;;;;;220994;1262;24371;-58
2022/08/15 12:08:06;;;;;;;10.70;9.60;;;28.40;59.90;;;;;;221472;1264;25375;-58
2022/08/15 12:13:29;;;;;;;13.90;10.60;;;28.50;59.00;;;;;;221317;1262;25466;-59
2022/08/15 12:18:36;;;;;;;12.40;9.80;;;28.60;58.80;;;;;;221663;1262;22538;-57
2022/08/15 12:23:58;;;;;;;11.80;10.10;;;28.50;57.70;;;;;;221538;1262;25401;-60
2022/08/15 12:29:07;;;;;;;11.00;9.80;;;28.40;57.60;;;;;;221328;1261;25409;-58
2022/08/15 12:34:24;;;;;;;12.30;10.80;;;28.30;58.80;;;;;;221273;1262;22535;-57
2022/08/15 12:39:31;;;;;;;13.50;9.40;;;28.20;58.70;;;;;;221160;1265;24189;-56
2022/08/15 12:44:37;;;;;;;17.30;10.10;;;28.20;58.20;;;;;;221339;1265;22540;-58
2022/08/15 12:49:41;;;;;;;13.00;10.40;;;28.20;59.10;;;;;;221183;1265;22545;-58
2022/08/15 12:54:51;;;;;;;14.80;10.50;;;28.10;58.70;;;;;;221534;1263;22553;-59
2022/08/15 13:00:09;;;;;;;12.20;10.30;;;28.00;58.60;;;;;;221308;1265;24305;-58
2022/08/15 13:05:34;;;;;;;11.60;10.20;;;28.00;59.60;;;;;;221089;1265;24387;-57
2022/08/15 13:11:00;;;;;;;13.00;10.00;;;27.90;60.00;;;;;;221381;1262;22525;-57
2022/08/15 13:16:17;;;;;;;11.80;10.40;;;27.80;61.10;;;;;;221508;1261;22554;-59
2022/08/15 13:27:03;;;;;;;12.00;10.30;;;27.80;62.80;;;;;;221457;1262;22532;-59
2022/08/15 13:32:07;;;;;;;10.80;9.50;;;27.70;61.90;;;;;;221529;1262;23056;-56
2022/08/15 13:37:14;;;;;;;11.70;10.20;;;27.60;63.80;;;;;;221639;1262;25394;-59
2022/08/15 13:42:17;;;;;;;13.60;11.00;;;27.60;63.90;;;;;;221470;1262;22563;-58
2022/08/15 13:47:40;;;;;;;12.50;11.20;;;27.50;64.80;;;;;;221692;1263;22535;-57
2022/08/15 13:52:58;;;;;;;12.60;11.30;;;27.50;65.40;;;;;;221453;1261;22807;-58
2022/08/15 13:58:04;;;;;;;12.20;10.60;;;27.40;65.30;;;;;;221474;1262;22480;-56
2022/08/15 14:03:23;;;;;;;13.20;10.90;;;27.30;65.80;;;;;;220973;1262;25296;-58
2022/08/15 14:08:25;;;;;;;12.70;10.90;;;27.30;65.80;;;;;;221167;1265;22713;-58
2022/08/15 14:13:51;;;;;;;12.50;11.00;;;27.10;66.30;;;;;;221485;1265;25077;-57
2022/08/15 14:18:56;;;;;;;14.50;10.30;;;27.10;66.20;;;;;;221263;1265;25317;-57
2022/08/15 14:24:10;;;;;;;13.60;9.70;;;27.10;66.30;;;;;;221151;1262;22540;-58
2022/08/15 14:29:41;;;;;;;10.60;9.50;;;27.10;66.00;;;;;;221024;1265;22557;-59
2022/08/15 14:35:08;;;;;;;23.70;9.80;;;27.10;65.90;;;;;;221165;1265;25357;-58
2022/08/15 14:40:18;;;;;;;11.50;9.60;;;27.20;65.80;;;;;;221172;1265;26488;-59
2022/08/15 14:45:23;;;;;;;11.80;9.40;;;27.20;65.80;;;;;;221104;1265;24407;-59
2022/08/15 14:50:46;;;;;;;9.80;8.70;;;27.20;65.60;;;;;;221293;1262;22710;-57
2022/08/15 14:56:09;;;;;;;10.80;9.20;;;27.20;66.00;;;;;;221191;1262;24354;-60
2022/08/15 15:01:11;;;;;;;13.50;9.40;;;27.20;66.20;;;;;;221542;1262;22681;-60
2022/08/15 15:06:31;;;;;;;13.20;8.90;;;27.10;66.50;;;;;;221687;1262;23415;-59
2022/08/15 15:11:42;;;;;;;10.80;9.20;;;27.10;67.10;;;;;;221514;1262;24284;-58
2022/08/15 15:16:57;;;;;;;9.40;8.40;;;27.00;67.20;;;;;;221504;1261;24215;-58
2022/08/15 15:21:59;;;;;;;10.60;8.50;;;27.00;67.50;;;;;;221529;1262;22636;-58
2022/08/15 15:27:06;;;;;;;11.40;8.90;;;27.00;68.00;;;;;;221627;1262;24361;-57
2022/08/15 15:32:09;;;;;;;9.00;8.10;;;27.00;68.10;;;;;;221466;1261;22551;-57
2022/08/15 15:37:39;;;;;;;10.10;7.70;;;26.90;68.50;;;;;;221126;1265;25409;-59
2022/08/15 15:42:45;;;;;;;11.20;8.30;;;26.90;68.90;;;;;;221295;1262;22551;-60
2022/08/15 15:47:54;;;;;;;11.80;8.10;;;26.90;68.40;;;;;;221400;1262;25257;-58
2022/08/15 15:53:23;;;;;;;8.50;7.60;;;26.90;68.30;;;;;;221272;1262;23757;-58
2022/08/15 15:58:38;;;;;;;10.10;7.80;;;26.90;67.90;;;;;;221049;1262;22604;-59
2022/08/15 16:04:01;;;;;;;13.50;9.00;;;26.90;67.70;;;;;;221076;1265;25332;-58
2022/08/15 16:09:09;;;;;;;10.10;7.80;;;26.90;67.80;;;;;;220906;1264;23280;-57
2022/08/15 16:14:30;;;;;;;11.20;8.10;;;27.00;68.30;;;;;;221208;1265;25319;-58
2022/08/15 16:19:35;;;;;;;;;;;27.10;68.40;;;;;;221325;1262;25304;-59
2022/08/15 16:25:07;;;;;;;9.40;8.50;;;27.00;68.20;;;;;;221230;1265;24722;-59
2022/08/15 16:30:16;;;;;;;11.00;7.50;;;27.10;67.80;;;;;;221001;1265;23871;-59
2022/08/15 16:35:42;;;;;;;9.10;8.20;;;27.00;66.90;;;;;;221063;1265;24293;-58
2022/08/15 16:40:52;;;;;;;9.30;7.80;;;27.00;67.20;;;;;;221032;1265;22782;-59
2022/08/15 16:46:12;;;;;;;9.10;8.10;;;27.10;67.20;;;;;;221088;1265;25249;-59
2022/08/15 16:51:34;;;;;;;11.20;8.60;;;27.10;67.00;;;;;;221397;1265;23179;-60
2022/08/15 16:56:46;;;;;;;9.10;8.10;;;27.00;67.70;;;;;;220492;1262;1274167;-58
2022/08/15 17:02:48;;;;;;;11.10;8.70;;;27.00;67.20;;;;;;221150;1265;22540;-60
2022/08/15 17:08:27;;;;;;;11.10;8.40;;;27.00;67.20;;;;;;220947;1262;22655;-59
2022/08/15 17:13:39;;;;;;;9.00;7.90;;;27.10;67.70;;;;;;221029;1262;24292;-59
2022/08/15 17:19:14;;;;;;;9.60;7.80;;;27.00;68.10;;;;;;220910;1265;25418;-57
2022/08/15 17:24:16;;;;;;;9.30;7.20;;;27.00;68.70;;;;;;220923;1262;24306;-59
2022/08/15 17:29:44;;;;;;;16.50;8.30;;;27.00;69.30;;;;;;221012;1262;24311;-59
2022/08/15 17:34:51;;;;;;;14.30;8.60;;;27.00;70.30;;;;;;221286;1262;22532;-61
2022/08/15 17:40:04;;;;;;;16.80;9.40;;;26.90;72.80;;;;;;221228;1262;22530;-62
2022/08/15 17:45:21;;;;;;;18.40;9.70;;;26.90;73.70;;;;;;221647;1262;25234;-60
2022/08/15 17:50:47;;;;;;;12.90;9.60;;;26.70;73.80;;;;;;220817;1262;22594;-59
2022/08/15 17:56:20;;;;;;;;;;;26.70;74.30;;;;;;220892;1265;22637;-60
2022/08/15 18:01:25;;;;;;;14.70;9.00;;;26.70;73.90;;;;;;221188;1265;26700;-59
2022/08/15 18:06:34;;;;;;;16.10;9.10;;;26.70;74.70;;;;;;221425;1265;22553;-63
2022/08/15 18:11:41;;;;;;;11.80;9.90;;;26.60;75.20;;;;;;221137;1265;23907;-60
2022/08/15 18:17:18;;;;;;;14.40;9.70;;;26.50;75.00;;;;;;221187;1262;24549;-61
2022/08/15 18:22:22;;;;;;;14.90;10.20;;;26.50;74.50;;;;;;221355;1265;22629;-62
2022/08/15 18:27:35;;;;;;;15.30;10.10;;;26.50;74.80;;;;;;221431;1265;25317;-59
2022/08/15 18:32:59;;;;;;;13.90;10.10;;;26.50;74.90;;;;;;221179;1262;24257;-59
2022/08/15 18:38:15;;;;;;;12.00;9.80;;;26.40;74.40;;;;;;221298;1265;25421;-61
2022/08/15 18:43:19;;;;;;;11.10;8.80;;;26.50;74.10;;;;;;221410;1262;24331;-58
2022/08/15 18:48:27;;;;;;;15.80;9.70;;;26.40;74.20;;;;;;221040;1262;22583;-58
2022/08/15 18:54:02;;;;;;;12.70;9.10;;;26.30;74.50;;;;;;221279;1262;24354;-61
2022/08/15 18:59:17;;;;;;;13.90;9.70;;;26.20;74.70;;;;;;221464;1262;22763;-60
2022/08/15 19:04:37;;;;;;;15.90;11.50;;;26.10;74.80;;;;;;221237;1265;25314;-59
2022/08/15 19:10:04;;;;;;;14.50;11.50;;;26.10;75.10;;;;;;221347;1265;22566;-61
2022/08/15 19:15:15;;;;;;;11.60;10.40;;;26.00;75.10;;;;;;221184;1265;22557;-59
2022/08/15 19:20:21;;;;;;;11.70;10.40;;;26.00;75.10;;;;;;221490;1262;22531;-60
2022/08/15 19:25:59;;;;;;;13.20;10.10;;;26.00;74.60;;;;;;221409;1265;25303;-58
2022/08/15 19:31:33;;;;;;;16.30;10.70;;;25.90;75.30;;;;;;221186;1262;22769;-62
2022/08/15 19:37:12;;;;;;;15.20;10.10;;;25.90;75.60;;;;;;221416;1262;24297;-62
2022/08/15 19:42:40;;;;;;;15.40;10.00;;;25.90;75.80;;;;;;221034;1262;22921;-56
2022/08/15 19:47:54;;;;;;;12.40;10.20;;;25.90;75.30;;;;;;221195;1265;24710;-60
2022/08/15 19:53:06;;;;;;;12.40;10.30;;;26.00;74.80;;;;;;221367;1265;22541;-59
2022/08/15 19:58:18;;;;;;;13.80;10.60;;;26.00;74.30;;;;;;220842;1265;24234;-57
2022/08/15 20:03:58;;;;;;;13.40;10.70;;;26.00;74.10;;;;;;221143;1262;22802;-58
2022/08/15 20:09:41;;;;;;;14.40;11.00;;;26.00;74.40;;;;;;221181;1262;24829;-56
2022/08/15 20:15:18;;;;;;;16.70;11.20;;;26.00;74.10;;;;;;221133;1265;22752;-57
2022/08/15 20:20:44;;;;;;;16.30;11.00;;;25.90;73.90;;;;;;221085;1262;24135;-58
2022/08/15 20:26:25;;;;;;;14.10;10.00;;;25.90;74.00;;;;;;221443;1262;24072;-58
2022/08/15 20:31:40;;;;;;;14.10;10.40;;;25.80;74.40;;;;;;220527;1265;25125;-58
2022/08/15 20:37:11;;;;;;;15.90;11.10;;;25.80;74.20;;;;;;221103;1265;22593;-58
2022/08/15 20:42:25;;;;;;;12.70;10.70;;;25.70;74.10;;;;;;221133;1265;22584;-59
2022/08/15 20:47:37;;;;;;;12.00;9.80;;;25.70;74.80;;;;;;221098;1265;26628;-57
2022/08/15 20:53:04;;;;;;;15.50;10.00;;;25.70;75.50;;;;;;221950;1262;22593;-59
2022/08/15 20:58:34;;;;;;;16.40;10.70;;;25.70;75.10;;;;;;221118;1262;24328;-57
2022/08/15 21:03:51;;;;;;;14.80;9.70;;;25.70;74.60;;;;;;221186;1262;24296;-58
2022/08/15 21:09:42;;;;;;;13.20;10.50;;;25.70;74.60;;;;;;220915;1262;24304;-60
2022/08/15 21:14:50;;;;;;;13.60;10.70;;;25.70;74.60;;;;;;220986;1262;25355;-58
2022/08/15 21:20:26;;;;;;;14.00;10.30;;;25.60;74.90;;;;;;221070;1262;25217;-58
2022/08/15 21:25:40;;;;;;;13.00;10.80;;;25.60;75.00;;;;;;221110;1265;24287;-59
2022/08/15 21:30:45;;;;;;;13.50;10.30;;;25.60;74.90;;;;;;221206;1262;22550;-56
2022/08/15 21:36:20;;;;;;;16.50;11.30;;;25.40;74.90;;;;;;221087;1262;22678;-59
2022/08/15 21:41:37;;;;;;;13.30;11.20;;;25.20;75.20;;;;;;221185;1262;24211;-57
2022/08/15 21:47:16;;;;;;;17.60;12.70;;;25.10;75.40;;;;;;221654;1262;24243;-55
2022/08/15 21:52:18;;;;;;;14.50;10.50;;;24.90;75.00;;;;;;221290;1262;24569;-60
2022/08/15 21:57:29;;;;;;;17.40;11.70;;;24.80;75.60;;;;;;221088;1261;24253;-60
2022/08/15 22:02:52;;;;;;;16.70;11.20;;;24.90;74.60;;;;;;221430;1262;22541;-58
2022/08/15 22:07:58;;;;;;;15.20;10.50;;;25.00;73.90;;;;;;221216;1262;24579;-60
2022/08/15 22:13:22;;;;;;;13.90;10.50;;;25.00;71.60;;;;;;221278;1262;22534;-58
2022/08/15 22:18:26;;;;;;;11.90;9.90;;;25.10;73.00;;;;;;221334;1262;25336;-57
2022/08/15 22:23:33;;;;;;;14.50;10.70;;;25.20;73.30;;;;;;221265;1262;24245;-59
2022/08/15 22:28:39;;;;;;;14.00;9.90;;;25.20;72.00;;;;;;221451;1262;22610;-58
2022/08/15 22:34:02;;;;;;;12.60;9.70;;;25.10;72.20;;;;;;221332;1262;22524;-60
2022/08/15 22:39:15;;;;;;;12.00;8.60;;;25.20;72.20;;;;;;220947;1265;22677;-60
2022/08/15 22:44:27;;;;;;;14.60;8.30;;;25.30;71.10;;;;;;221170;1262;25475;-60
2022/08/15 22:49:42;;;;;;;14.40;9.30;;;25.40;70.80;;;;;;221079;1262;23026;-59
2022/08/15 22:54:55;;;;;;;11.60;8.60;;;25.40;70.20;;;;;;220932;1262;25253;-60
2022/08/15 23:00:09;;;;;;;12.40;8.60;;;25.50;70.30;;;;;;221152;1262;25261;-59
2022/08/15 23:05:28;;;;;;;15.50;8.90;;;25.50;69.90;;;;;;221148;1265;25309;-58
2022/08/15 23:10:43;;;;;;;11.90;8.20;;;25.50;70.20;;;;;;220725;1265;25303;-58
2022/08/15 23:15:55;;;;;;;11.30;8.10;;;25.50;70.10;;;;;;220893;1265;26529;-59
2022/08/15 23:20:58;;;;;;;11.50;8.00;;;25.50;70.90;;;;;;221047;1262;22663;-59
2022/08/15 23:26:03;;;;;;;11.30;8.20;;;25.50;70.90;;;;;;221540;1265;24747;-60
2022/08/15 23:31:36;;;;;;;9.90;7.70;;;25.60;70.10;;;;;;220844;1262;24212;-59
2022/08/15 23:37:01;;;;;;;11.30;8.10;;;25.50;69.40;;;;;;221088;1262;22538;-57
2022/08/15 23:42:23;;;;;;;;;;;25.50;69.50;;;;;;221484;1262;24296;-60
2022/08/15 23:47:32;;;;;;;8.70;7.70;;;25.60;70.30;;;;;;220900;1265;22597;-57
2022/08/15 23:52:37;;;;;;;8.40;7.40;;;25.70;70.60;;;;;;220854;1265;23055;-59
2022/08/15 23:57:44;;;;;;;9.10;8.10;;;25.70;70.50;;;;;;221286;1265;24293;-60
